Time;durP1;ratioP1;P1;durP2;ratioP2;P2;SDS_P1;SDS_P2;PMS_P1;PMS_P2;Temp;Humidity;BMP_temperature;BMP_pressure;BME280_temperature;BME280_humidity;BME280_pressure;Samples;Min_cycle;Max_cycle;Signal;HPM_P1;HPM_P2
2023/06/08 00:01:02;;;;;;;0.30;0.30;;;11.70;99.90;;;;;;5075601;28;20036;-75
2023/06/08 00:03:28;;;;;;;0.68;0.68;;;11.80;99.90;;;;;;5075816;28;20044;-75
2023/06/08 00:05:53;;;;;;;1.05;0.50;;;11.70;99.90;;;;;;5075706;28;20453;-75
2023/06/08 00:08:19;;;;;;;0.50;0.50;;;11.70;99.90;;;;;;5092544;28;20043;-75
2023/06/08 00:10:46;;;;;;;0.60;0.60;;;11.70;99.90;;;;;;5091802;28;20043;-75
2023/06/08 00:13:13;;;;;;;0.32;0.32;;;11.70;99.90;;;;;;5074953;28;20093;-75
2023/06/08 00:15:39;;;;;;;0.45;0.45;;;11.70;99.90;;;;;;5091804;28;20543;-76
2023/06/08 00:18:08;;;;;;;1.17;1.17;;;11.70;99.90;;;;;;5074016;28;20093;-75
2023/06/08 00:20:35;;;;;;;0.55;0.55;;;11.70;99.90;;;;;;5092494;28;20052;-75
2023/06/08 00:23:04;;;;;;;0.40;0.40;;;11.60;99.90;;;;;;5092501;28;20397;-75
2023/06/08 00:25:30;;;;;;;0.32;0.32;;;11.60;99.90;;;;;;5088652;28;20037;-75
2023/06/08 00:27:56;;;;;;;0.73;0.73;;;11.60;99.90;;;;;;5071039;28;20047;-75
2023/06/08 00:30:22;;;;;;;0.68;0.68;;;11.60;99.90;;;;;;5071194;28;20240;-75
2023/06/08 00:32:48;;;;;;;0.30;0.30;;;11.60;99.90;;;;;;5070992;28;20464;-75
2023/06/08 00:35:14;;;;;;;;;;;11.60;99.90;;;;;;5071529;28;20071;-75
2023/06/08 00:37:40;;;;;;;1.65;0.90;;;11.60;99.90;;;;;;5104832;28;19928;-75
2023/06/08 00:40:07;;;;;;;0.40;0.40;;;11.60;99.90;;;;;;5053929;28;20036;-75
2023/06/08 00:42:32;;;;;;;0.40;0.40;;;11.60;99.90;;;;;;5076296;28;20050;-75
2023/06/08 00:44:58;;;;;;;0.60;0.60;;;11.50;99.90;;;;;;5091074;28;20036;-75
2023/06/08 00:47:25;;;;;;;0.75;0.50;;;11.60;99.90;;;;;;5057227;28;20048;-75
2023/06/08 00:49:51;;;;;;;0.38;0.38;;;11.60;99.90;;;;;;5090492;28;20063;-75
2023/06/08 00:52:20;;;;;;;0.30;0.30;;;11.60;99.90;;;;;;5090972;28;20047;-76
2023/06/08 00:54:50;;;;;;;0.30;0.30;;;11.60;99.90;;;;;;5090800;28;20056;-75
2023/06/08 00:57:18;;;;;;;0.30;0.30;;;11.50;99.90;;;;;;5091339;28;20051;-75
2023/06/08 00:59:49;;;;;;;0.52;0.52;;;11.50;99.90;;;;;;5090768;28;20040;-75
2023/06/08 01:02:16;;;;;;;0.38;0.38;;;11.50;99.90;;;;;;5090871;28;20051;-75
2023/06/08 01:04:43;;;;;;;0.30;0.30;;;11.50;99.90;;;;;;5090596;28;20032;-75
2023/06/08 01:07:25;;;;;;;0.77;0.52;;;11.50;99.90;;;;;;5089999;28;20122;-75
2023/06/08 01:10:25;;;;;;;0.32;0.30;;;11.60;99.90;;;;;;5090870;28;20128;-75
2023/06/08 01:12:59;;;;;;;0.30;0.30;;;11.50;99.90;;;;;;5087597;28;20079;-75
2023/06/08 01:15:34;;;;;;;0.43;0.43;;;11.60;99.90;;;;;;5091679;28;20135;-75
2023/06/08 01:18:04;;;;;;;0.50;0.50;;;11.60;99.90;;;;;;5091304;28;20055;-75
2023/06/08 01:20:46;;;;;;;0.40;0.40;;;11.60;99.90;;;;;;5090793;28;20047;-75
2023/06/08 01:23:45;;;;;;;0.30;0.30;;;11.60;99.90;;;;;;5090327;28;20048;-75
2023/06/08 01:26:15;;;;;;;0.40;0.40;;;11.60;99.90;;;;;;5086615;28;20477;-75
2023/06/08 01:28:42;;;;;;;0.40;0.40;;;11.60;99.90;;;;;;5070227;28;20048;-75
2023/06/08 01:31:07;;;;;;;1.23;0.77;;;11.60;99.90;;;;;;5069873;28;20132;-75
2023/06/08 01:33:33;;;;;;;0.28;0.28;;;11.60;99.90;;;;;;5072128;28;20142;-75
2023/06/08 01:36:02;;;;;;;;;;;11.60;99.90;;;;;;5073807;28;20082;-75
2023/06/08 01:38:45;;;;;;;0.32;0.32;;;11.60;99.90;;;;;;5124006;27;20010;-74
2023/06/08 01:41:17;;;;;;;8.05;0.80;;;11.50;99.90;;;;;;5089689;28;20040;-74
2023/06/08 01:43:47;;;;;;;0.40;0.40;;;11.50;99.90;;;;;;5090189;28;20522;-75
2023/06/08 01:46:15;;;;;;;0.30;0.30;;;11.50;99.90;;;;;;5089568;28;20078;-74
2023/06/08 01:48:45;;;;;;;0.30;0.30;;;11.50;99.90;;;;;;5090352;28;20439;-74
2023/06/08 01:51:13;;;;;;;0.38;0.38;;;11.40;99.90;;;;;;5072463;28;20044;-75
2023/06/08 01:53:38;;;;;;;0.40;0.40;;;11.50;99.90;;;;;;5089574;28;20105;-75
2023/06/08 01:56:04;;;;;;;0.55;0.55;;;11.50;99.90;;;;;;5072772;28;20431;-75
2023/06/08 01:58:30;;;;;;;0.85;0.85;;;11.50;99.90;;;;;;5090293;28;20048;-75
2023/06/08 02:00:56;;;;;;;0.60;0.60;;;11.50;99.90;;;;;;5055804;28;20051;-74
2023/06/08 02:03:21;;;;;;;0.30;0.30;;;11.50;99.90;;;;;;5072974;28;20040;-75
2023/06/08 02:05:47;;;;;;;0.40;0.40;;;11.60;99.90;;;;;;5089687;28;20035;-75
2023/06/08 02:08:13;;;;;;;0.50;0.50;;;11.60;99.90;;;;;;5089286;28;20467;-75
2023/06/08 02:10:38;;;;;;;;;;;11.50;99.90;;;;;;5090074;28;20036;-75
2023/06/08 02:13:04;;;;;;;0.40;0.40;;;11.60;99.90;;;;;;5090038;28;20045;-75
2023/06/08 02:15:30;;;;;;;0.32;0.32;;;11.50;99.90;;;;;;5073450;28;20133;-75
2023/06/08 02:17:58;;;;;;;;;;;11.60;99.90;;;;;;5088799;28;20090;-75
2023/06/08 02:20:25;;;;;;;0.32;0.32;;;11.60;99.90;;;;;;5089631;28;19920;-75
2023/06/08 02:22:51;;;;;;;0.35;0.35;;;11.60;99.90;;;;;;5089172;28;20040;-75
2023/06/08 02:25:17;;;;;;;0.30;0.30;;;11.60;99.90;;;;;;5088813;28;20031;-74
2023/06/08 02:27:43;;;;;;;0.50;0.50;;;11.60;99.90;;;;;;5073201;28;20043;-74
2023/06/08 02:30:11;;;;;;;0.50;0.50;;;11.60;99.90;;;;;;5089196;28;20137;-75
2023/06/08 02:32:45;;;;;;;1.27;0.63;;;11.60;99.90;;;;;;5123183;27;20045;-75
2023/06/08 02:35:11;;;;;;;0.40;0.40;;;11.60;99.90;;;;;;5088429;28;20093;-75
2023/06/08 02:37:37;;;;;;;0.40;0.40;;;11.60;99.90;;;;;;5055228;28;20056;-74
2023/06/08 02:40:04;;;;;;;0.43;0.43;;;11.60;99.90;;;;;;5088812;28;20036;-75
2023/06/08 02:42:30;;;;;;;0.38;0.38;;;11.60;99.90;;;;;;5071966;28;20055;-75
2023/06/08 02:44:55;;;;;;;0.40;0.40;;;11.60;99.90;;;;;;5072945;28;20481;-75
2023/06/08 02:47:21;;;;;;;0.30;0.30;;;11.60;99.90;;;;;;5072192;28;20104;-75
2023/06/08 02:49:47;;;;;;;0.30;0.30;;;11.60;99.90;;;;;;5073018;28;20139;-75
2023/06/08 02:52:12;;;;;;;0.50;0.50;;;11.60;99.90;;;;;;5099684;28;20075;-75
2023/06/08 02:54:38;;;;;;;0.40;0.40;;;11.60;99.90;;;;;;5072154;28;20054;-75
2023/06/08 02:57:05;;;;;;;0.35;0.35;;;11.60;99.90;;;;;;5088256;28;20039;-75
2023/06/08 02:59:31;;;;;;;0.40;0.40;;;11.60;99.90;;;;;;5088630;28;20050;-75
2023/06/08 03:01:57;;;;;;;0.38;0.38;;;11.60;99.90;;;;;;5088743;28;20071;-74
2023/06/08 03:04:26;;;;;;;0.40;0.40;;;11.60;99.90;;;;;;5088293;28;20047;-75
2023/06/08 03:06:55;;;;;;;0.35;0.35;;;11.60;99.90;;;;;;5088369;28;20519;-74
2023/06/08 03:09:23;;;;;;;0.43;0.43;;;11.70;99.90;;;;;;5087899;28;20105;-74
2023/06/08 03:11:49;;;;;;;0.30;0.30;;;11.70;99.90;;;;;;5088647;28;20386;-75
2023/06/08 03:14:16;;;;;;;0.68;0.68;;;11.70;99.90;;;;;;5087402;28;20101;-75
2023/06/08 03:16:44;;;;;;;0.47;0.47;;;11.70;99.90;;;;;;5087662;28;20050;-75
2023/06/08 03:19:10;;;;;;;0.20;0.20;;;11.70;99.90;;;;;;5087276;28;20052;-75
2023/06/08 03:21:36;;;;;;;0.52;0.52;;;11.70;99.90;;;;;;5070909;28;20118;-75
2023/06/08 03:24:03;;;;;;;0.45;0.45;;;11.80;99.90;;;;;;5088506;28;20078;-75
2023/06/08 03:26:28;;;;;;;0.40;0.40;;;11.80;99.90;;;;;;5088523;28;20096;-75
2023/06/08 03:28:54;;;;;;;0.98;0.70;;;11.80;99.90;;;;;;5071784;28;20051;-74
2023/06/08 03:31:20;;;;;;;0.57;0.57;;;11.80;99.90;;;;;;5071008;28;20109;-75
2023/06/08 03:33:46;;;;;;;0.20;0.20;;;11.80;99.90;;;;;;5088112;28;20047;-75
2023/06/08 03:36:12;;;;;;;;;;;11.80;99.90;;;;;;5054744;28;20040;-75
2023/06/08 03:38:38;;;;;;;0.30;0.30;;;11.80;99.90;;;;;;5088071;28;19988;-74
2023/06/08 03:41:03;;;;;;;;;;;11.80;99.90;;;;;;5054710;28;20055;-74
2023/06/08 03:43:29;;;;;;;0.40;0.40;;;11.80;99.90;;;;;;5088222;28;20229;-74
2023/06/08 03:45:55;;;;;;;0.55;0.55;;;11.90;99.90;;;;;;5071530;28;20101;-74
2023/06/08 03:48:21;;;;;;;0.30;0.30;;;11.90;99.90;;;;;;5070812;28;20401;-75
2023/06/08 03:50:46;;;;;;;0.40;0.40;;;11.90;99.90;;;;;;5071086;28;20404;-74
2023/06/08 03:53:12;;;;;;;0.45;0.45;;;11.90;99.90;;;;;;5054168;28;20048;-74
2023/06/08 03:55:38;;;;;;;0.30;0.30;;;11.90;99.90;;;;;;5071656;28;20044;-75
2023/06/08 03:58:04;;;;;;;;;;;11.90;99.90;;;;;;5088534;28;20505;-74
2023/06/08 04:00:30;;;;;;;0.60;0.60;;;11.90;99.90;;;;;;5087599;28;19931;-75
2023/06/08 04:02:56;;;;;;;0.55;0.55;;;11.90;99.90;;;;;;5088337;28;20073;-75
2023/06/08 04:05:22;;;;;;;0.28;0.28;;;11.90;99.90;;;;;;5090919;28;20039;-74
2023/06/08 04:07:50;;;;;;;0.88;0.88;;;12.00;99.90;;;;;;5088201;28;20093;-74
2023/06/08 04:10:17;;;;;;;0.40;0.40;;;12.00;99.90;;;;;;5087349;28;20047;-74
2023/06/08 04:12:43;;;;;;;0.30;0.30;;;12.00;99.90;;;;;;5087791;28;20036;-75
2023/06/08 04:15:10;;;;;;;0.28;0.28;;;12.00;99.90;;;;;;5087441;28;20051;-75
2023/06/08 04:17:41;;;;;;;0.63;0.63;;;12.00;99.90;;;;;;5082967;28;20051;-74
2023/06/08 04:20:10;;;;;;;0.30;0.30;;;12.00;99.90;;;;;;5048335;28;20056;-74
2023/06/08 04:22:36;;;;;;;0.88;0.88;;;12.00;99.90;;;;;;5071162;28;20052;-75
2023/06/08 04:25:02;;;;;;;0.38;0.38;;;12.10;99.90;;;;;;5087896;28;20123;-74
2023/06/08 04:27:28;;;;;;;0.20;0.20;;;12.10;99.90;;;;;;5121523;28;20081;-75
2023/06/08 04:29:54;;;;;;;0.50;0.50;;;12.10;99.90;;;;;;5088237;28;20044;-75
2023/06/08 04:32:26;;;;;;;0.43;0.43;;;12.10;99.90;;;;;;5088020;28;20053;-75
2023/06/08 04:34:52;;;;;;;0.30;0.30;;;12.20;99.90;;;;;;5122459;28;20092;-75
2023/06/08 04:37:17;;;;;;;1.98;1.13;;;12.20;99.90;;;;;;5088287;28;20040;-76
2023/06/08 04:39:43;;;;;;;0.40;0.40;;;12.30;99.90;;;;;;5071490;28;20616;-76
2023/06/08 04:42:09;;;;;;;0.20;0.20;;;12.30;99.90;;;;;;5057448;28;20047;-76
2023/06/08 04:44:35;;;;;;;0.28;0.28;;;12.30;99.90;;;;;;5074599;28;20044;-76
2023/06/08 04:47:02;;;;;;;0.30;0.30;;;12.40;99.90;;;;;;5091091;28;20050;-75
2023/06/08 04:49:31;;;;;;;0.25;0.25;;;12.40;99.90;;;;;;5090820;28;20553;-76
2023/06/08 04:51:59;;;;;;;0.57;0.52;;;12.50;99.90;;;;;;5083395;28;20047;-76
2023/06/08 04:54:26;;;;;;;0.50;0.50;;;12.60;99.90;;;;;;5097159;28;20048;-75
2023/06/08 04:56:58;;;;;;;0.30;0.30;;;12.50;99.90;;;;;;5074376;28;20130;-75
2023/06/08 04:59:25;;;;;;;0.40;0.40;;;12.60;99.90;;;;;;5077111;28;20048;-76
2023/06/08 05:01:51;;;;;;;0.30;0.30;;;12.60;99.90;;;;;;5075029;28;20069;-76
2023/06/08 05:04:17;;;;;;;0.30;0.30;;;12.70;99.90;;;;;;5091291;28;20044;-75
2023/06/08 05:06:42;;;;;;;0.55;0.55;;;12.70;99.90;;;;;;5091194;28;20480;-76
2023/06/08 05:09:08;;;;;;;0.40;0.40;;;12.70;99.90;;;;;;5074309;28;20431;-75
2023/06/08 05:11:34;;;;;;;0.40;0.40;;;12.80;99.90;;;;;;5073876;28;20032;-76
2023/06/08 05:14:00;;;;;;;0.40;0.40;;;12.80;99.90;;;;;;5074216;28;20040;-76
2023/06/08 05:16:25;;;;;;;0.22;0.22;;;12.90;99.90;;;;;;5073902;28;20039;-76
2023/06/08 05:18:51;;;;;;;0.50;0.50;;;12.90;99.90;;;;;;5073296;28;20052;-76
2023/06/08 05:21:17;;;;;;;0.30;0.30;;;12.90;99.90;;;;;;5090548;28;20131;-76
2023/06/08 05:23:43;;;;;;;0.35;0.35;;;12.90;99.90;;;;;;5073728;28;20047;-75
2023/06/08 05:26:08;;;;;;;0.55;0.55;;;13.00;99.90;;;;;;5090192;28;20040;-76
2023/06/08 05:28:34;;;;;;;0.75;0.75;;;13.00;99.90;;;;;;5124511;27;20094;-76
2023/06/08 05:31:00;;;;;;;0.30;0.30;;;13.00;99.90;;;;;;5073496;28;20496;-76
2023/06/08 05:33:26;;;;;;;0.30;0.30;;;13.10;99.90;;;;;;5107044;28;20043;-75
2023/06/08 05:35:52;;;;;;;0.20;0.20;;;13.20;99.90;;;;;;5073409;28;20404;-74
2023/06/08 05:38:19;;;;;;;0.20;0.20;;;13.30;99.90;;;;;;5072806;28;20059;-74
2023/06/08 05:40:45;;;;;;;0.47;0.47;;;13.30;99.90;;;;;;5091458;28;20063;-75
2023/06/08 05:43:11;;;;;;;0.35;0.35;;;13.30;99.90;;;;;;5062264;28;20043;-74
2023/06/08 05:45:37;;;;;;;;;;;13.40;99.90;;;;;;5095173;28;20048;-75
2023/06/08 05:48:03;;;;;;;0.30;0.30;;;13.50;99.90;;;;;;5076968;28;19919;-74
2023/06/08 05:50:29;;;;;;;0.20;0.20;;;13.50;99.90;;;;;;5073456;28;20086;-74
2023/06/08 05:52:54;;;;;;;0.30;0.30;;;13.60;99.90;;;;;;5089502;28;20082;-75
2023/06/08 05:55:20;;;;;;;0.30;0.30;;;13.70;99.90;;;;;;5089908;28;20042;-75
2023/06/08 05:57:46;;;;;;;0.30;0.30;;;13.80;99.90;;;;;;5089871;28;20044;-75
2023/06/08 06:00:12;;;;;;;;;;;13.70;99.90;;;;;;5073470;28;20040;-75
2023/06/08 06:02:38;;;;;;;0.25;0.25;;;13.80;99.90;;;;;;5089498;28;19984;-75
2023/06/08 06:05:06;;;;;;;0.30;0.30;;;13.80;99.90;;;;;;5073296;28;20532;-75
2023/06/08 06:07:32;;;;;;;0.25;0.25;;;13.90;99.90;;;;;;5074269;28;20032;-76
2023/06/08 06:09:57;;;;;;;0.35;0.35;;;13.90;99.90;;;;;;5078131;28;20598;-76
2023/06/08 06:12:23;;;;;;;0.30;0.30;;;13.80;99.90;;;;;;5090321;28;20075;-75
2023/06/08 06:14:52;;;;;;;;;;;13.80;99.90;;;;;;5073392;28;20071;-76
2023/06/08 06:17:17;;;;;;;0.30;0.30;;;13.90;99.90;;;;;;5072369;28;20024;-76
2023/06/08 06:19:43;;;;;;;0.75;0.75;;;14.00;99.90;;;;;;5089205;28;20098;-76
2023/06/08 06:22:10;;;;;;;;;;;14.20;99.90;;;;;;5072866;28;20561;-76
2023/06/08 06:24:36;;;;;;;0.45;0.45;;;14.40;99.90;;;;;;5089233;28;19939;-76
2023/06/08 06:27:03;;;;;;;0.30;0.30;;;14.50;99.90;;;;;;5089144;28;20071;-76
2023/06/08 06:29:28;;;;;;;0.25;0.25;;;14.60;99.90;;;;;;5106270;28;20522;-76
2023/06/08 06:31:54;;;;;;;0.45;0.40;;;14.60;99.90;;;;;;5123662;27;20241;-76
2023/06/08 06:34:20;;;;;;;;;;;14.50;99.90;;;;;;5072101;28;20405;-76
2023/06/08 06:36:46;;;;;;;0.50;0.50;;;14.50;99.90;;;;;;5089353;28;19924;-76
2023/06/08 06:39:12;;;;;;;0.30;0.30;;;14.50;99.90;;;;;;5089084;28;20047;-76
2023/06/08 06:41:41;;;;;;;;;;;14.50;99.90;;;;;;5089398;28;20861;-76
2023/06/08 06:44:08;;;;;;;0.38;0.38;;;14.60;99.90;;;;;;5089259;28;19927;-76
2023/06/08 06:46:33;;;;;;;0.52;0.52;;;14.50;99.90;;;;;;5072115;28;20054;-78
2023/06/08 06:48:59;;;;;;;1.35;0.40;;;14.60;99.90;;;;;;5055329;28;20408;-76
2023/06/08 06:51:25;;;;;;;0.20;0.20;;;14.70;99.90;;;;;;5088653;28;20040;-76
2023/06/08 06:53:51;;;;;;;;;;;14.80;99.90;;;;;;5073248;28;20401;-76
2023/06/08 06:56:16;;;;;;;0.40;0.40;;;14.80;99.90;;;;;;5089630;28;19926;-76
2023/06/08 06:58:45;;;;;;;;;;;14.80;99.90;;;;;;5088917;28;20047;-76
2023/06/08 07:01:12;;;;;;;0.30;0.30;;;14.80;99.90;;;;;;5055866;28;20250;-76
2023/06/08 07:03:40;;;;;;;0.30;0.30;;;14.70;99.90;;;;;;5071194;28;20050;-76
2023/06/08 07:06:06;;;;;;;0.38;0.38;;;14.80;99.90;;;;;;5055373;28;20040;-76
2023/06/08 07:08:34;;;;;;;0.30;0.30;;;14.90;99.90;;;;;;5088322;28;20052;-76
2023/06/08 07:11:01;;;;;;;0.40;0.40;;;14.90;99.90;;;;;;5071991;28;20048;-76
2023/06/08 07:13:27;;;;;;;0.38;0.38;;;14.80;99.90;;;;;;5088611;28;20043;-76
2023/06/08 07:15:53;;;;;;;;;;;14.80;99.90;;;;;;5089216;28;20047;-76
2023/06/08 07:18:18;;;;;;;0.75;0.75;;;14.70;99.90;;;;;;5071786;28;19928;-76
2023/06/08 07:20:44;;;;;;;;;;;14.80;99.90;;;;;;5088544;28;20062;-76
2023/06/08 07:23:10;;;;;;;0.40;0.40;;;14.80;99.90;;;;;;5088531;28;19920;-76
2023/06/08 07:25:37;;;;;;;;;;;14.90;99.90;;;;;;5071537;28;20550;-76
2023/06/08 07:28:03;;;;;;;4.03;0.47;;;14.90;99.90;;;;;;5088447;28;19927;-76
2023/06/08 07:30:31;;;;;;;0.30;0.30;;;15.00;99.90;;;;;;5088392;28;20036;-76
2023/06/08 07:32:58;;;;;;;0.40;0.40;;;15.10;99.90;;;;;;5122555;28;20473;-76
2023/06/08 07:35:23;;;;;;;0.63;0.60;;;15.20;99.90;;;;;;5088584;28;20048;-76
2023/06/08 07:37:49;;;;;;;1.45;0.82;;;15.40;99.90;;;;;;5101811;28;20048;-76
2023/06/08 07:40:17;;;;;;;;;;;15.40;99.90;;;;;;5052024;28;20101;-77
2023/06/08 07:42:43;;;;;;;0.50;0.50;;;15.50;99.90;;;;;;5075038;28;20341;-75
2023/06/08 07:45:11;;;;;;;0.30;0.30;;;15.50;99.90;;;;;;5105150;28;20130;-76
2023/06/08 07:47:37;;;;;;;0.30;0.30;;;15.70;99.90;;;;;;5070938;28;20055;-76
2023/06/08 07:50:02;;;;;;;;;;;15.80;99.90;;;;;;5072103;28;20066;-75
2023/06/08 07:52:28;;;;;;;0.30;0.30;;;15.80;99.90;;;;;;5101451;28;19923;-76
2023/06/08 07:54:54;;;;;;;;;;;15.90;99.90;;;;;;5090828;28;20052;-76
2023/06/08 07:57:19;;;;;;;0.20;0.20;;;15.90;99.90;;;;;;5088356;28;19941;-76
2023/06/08 07:59:45;;;;;;;0.75;0.75;;;15.80;99.90;;;;;;5088168;28;20043;-77
2023/06/08 08:02:11;;;;;;;;;;;15.90;99.90;;;;;;5089467;28;20047;-76
2023/06/08 08:04:37;;;;;;;0.28;0.28;;;15.90;99.90;;;;;;5088859;28;19916;-76
2023/06/08 08:07:02;;;;;;;0.30;0.30;;;16.00;99.90;;;;;;5071937;28;20066;-76
2023/06/08 08:09:28;;;;;;;;;;;16.20;99.90;;;;;;5088168;28;20046;-76
2023/06/08 08:11:53;;;;;;;0.40;0.40;;;16.40;99.90;;;;;;5088363;28;19920;-74
2023/06/08 08:14:19;;;;;;;;;;;16.50;99.90;;;;;;5088639;28;20060;-77
2023/06/08 08:16:45;;;;;;;0.45;0.45;;;16.60;99.90;;;;;;5073338;28;20301;-74
2023/06/08 08:19:10;;;;;;;;;;;16.60;99.90;;;;;;5075467;28;20101;-76
2023/06/08 08:21:36;;;;;;;0.25;0.25;;;16.50;99.90;;;;;;5091472;28;19973;-76
2023/06/08 08:24:02;;;;;;;;;;;16.40;99.90;;;;;;5092384;28;20075;-76
2023/06/08 08:26:28;;;;;;;0.25;0.25;;;16.40;99.90;;;;;;5091651;28;19920;-76
2023/06/08 08:28:55;;;;;;;1.08;1.00;;;16.30;99.90;;;;;;5075424;28;20040;-76
2023/06/08 08:31:21;;;;;;;0.43;0.43;;;16.40;99.90;;;;;;5108455;28;20047;-76
2023/06/08 08:33:47;;;;;;;;;;;16.60;99.90;;;;;;5092369;28;20039;-76
2023/06/08 08:36:13;;;;;;;0.20;0.20;;;16.90;99.90;;;;;;5091975;28;19919;-76
2023/06/08 08:38:39;;;;;;;;;;;17.00;99.90;;;;;;5092058;28;20500;-74
2023/06/08 08:41:08;;;;;;;0.30;0.30;;;17.10;99.90;;;;;;5075069;28;19927;-76
2023/06/08 08:43:57;;;;;;;0.68;0.68;;;17.00;99.90;;;;;;5091041;28;20286;-75
2023/06/08 08:46:25;;;;;;;0.22;0.22;;;17.50;99.90;;;;;;5072289;28;20137;-76
2023/06/08 08:48:53;;;;;;;0.63;0.38;;;17.00;99.90;;;;;;5081057;28;20044;-76
2023/06/08 08:51:19;;;;;;;1.23;1.13;;;17.10;99.90;;;;;;5079338;28;20035;-75
2023/06/08 08:53:50;;;;;;;0.30;0.30;;;17.10;99.90;;;;;;5070141;28;20046;-75
2023/06/08 08:56:30;;;;;;;0.30;0.30;;;17.00;99.90;;;;;;5091381;28;20079;-75
2023/06/08 08:58:56;;;;;;;0.40;0.40;;;17.00;99.90;;;;;;5074335;28;20044;-74
2023/06/08 09:01:23;;;;;;;;;;;17.10;99.90;;;;;;5091455;28;20079;-75
2023/06/08 09:03:50;;;;;;;0.30;0.30;;;17.40;99.90;;;;;;5090858;28;20357;-75
2023/06/08 09:06:15;;;;;;;0.77;0.77;;;17.40;99.90;;;;;;5091620;28;20044;-75
2023/06/08 09:08:41;;;;;;;;;;;17.40;99.90;;;;;;5074831;28;20052;-76
2023/06/08 09:11:09;;;;;;;0.55;0.55;;;17.40;99.90;;;;;;5092146;28;19923;-75
2023/06/08 09:13:35;;;;;;;1.95;0.30;;;17.50;99.90;;;;;;5075085;28;20044;-76
2023/06/08 09:16:14;;;;;;;0.40;0.40;;;17.60;99.90;;;;;;5075482;28;20400;-76
2023/06/08 09:18:41;;;;;;;0.38;0.38;;;17.80;99.90;;;;;;5090423;28;20051;-76
2023/06/08 09:21:23;;;;;;;5.95;1.55;;;18.10;99.90;;;;;;5074108;28;20040;-76
2023/06/08 09:24:17;;;;;;;0.25;0.25;;;18.20;99.90;;;;;;5090536;28;20085;-76
2023/06/08 09:26:50;;;;;;;0.30;0.30;;;18.40;99.90;;;;;;5073076;28;20097;-75
2023/06/08 09:29:38;;;;;;;0.30;0.30;;;18.40;99.90;;;;;;5090453;28;20082;-76
2023/06/08 09:32:04;;;;;;;0.20;0.20;;;18.40;99.90;;;;;;5090934;28;20056;-77
2023/06/08 09:34:33;;;;;;;0.50;0.50;;;18.30;99.90;;;;;;5074197;28;20541;-76
2023/06/08 09:37:10;;;;;;;0.32;0.32;;;18.10;99.90;;;;;;5090655;28;20091;-76
2023/06/08 09:39:39;;;;;;;0.55;0.55;;;17.90;99.90;;;;;;5089961;28;20032;-76
2023/06/08 09:42:06;;;;;;;0.47;0.47;;;18.10;99.90;;;;;;5073591;28;20036;-76
2023/06/08 09:44:32;;;;;;;0.30;0.30;;;18.10;99.90;;;;;;5090202;28;20036;-76
2023/06/08 09:46:57;;;;;;;;;;;18.10;99.90;;;;;;5091508;28;20063;-76
2023/06/08 09:49:23;;;;;;;0.75;0.75;;;18.20;99.90;;;;;;5107204;28;19920;-75
2023/06/08 09:51:50;;;;;;;;;;;18.10;99.90;;;;;;5089923;28;20052;-75
2023/06/08 09:54:18;;;;;;;0.20;0.20;;;18.20;99.90;;;;;;5090105;28;20015;-77
2023/06/08 09:56:57;;;;;;;0.25;0.25;;;18.30;99.90;;;;;;5089776;28;20087;-75
2023/06/08 09:59:28;;;;;;;0.65;0.65;;;18.30;99.90;;;;;;5090156;28;20427;-76
2023/06/08 10:01:57;;;;;;;0.57;0.57;;;18.50;99.90;;;;;;5089902;28;20460;-76
2023/06/08 10:04:39;;;;;;;0.20;0.20;;;18.60;99.90;;;;;;5089730;28;20512;-76
2023/06/08 10:07:10;;;;;;;0.20;0.20;;;18.70;99.90;;;;;;5072942;28;20122;-76
2023/06/08 10:09:40;;;;;;;0.35;0.35;;;18.60;99.90;;;;;;5072805;28;20040;-76
2023/06/08 10:12:07;;;;;;;0.40;0.40;;;18.50;99.90;;;;;;5089648;28;20054;-76
2023/06/08 10:14:34;;;;;;;0.22;0.22;;;18.50;99.90;;;;;;5089497;28;20032;-76
2023/06/08 10:17:00;;;;;;;0.38;0.38;;;18.70;99.90;;;;;;5073006;28;20046;-76
2023/06/08 10:19:26;;;;;;;;;;;18.60;99.90;;;;;;5072869;28;20052;-76
2023/06/08 10:21:53;;;;;;;0.22;0.22;;;18.60;99.90;;;;;;5073164;28;19924;-76
2023/06/08 10:24:21;;;;;;;0.47;0.47;;;18.60;99.90;;;;;;5090757;28;20046;-76
2023/06/08 10:26:50;;;;;;;1.50;1.40;;;19.10;99.90;;;;;;5089180;28;20040;-76
2023/06/08 10:29:16;;;;;;;0.32;0.32;;;18.70;99.90;;;;;;5106376;28;20040;-76
2023/06/08 10:31:47;;;;;;;0.35;0.22;;;18.60;99.90;;;;;;5089076;28;20350;-76
2023/06/08 10:34:19;;;;;;;0.88;0.88;;;18.50;99.90;;;;;;5106250;28;20143;-76
2023/06/08 10:36:45;;;;;;;0.10;0.10;;;18.50;99.90;;;;;;5072623;28;20125;-76
2023/06/08 10:39:15;;;;;;;;;;;18.60;99.90;;;;;;5071805;28;20052;-76
2023/06/08 10:41:52;;;;;;;0.40;0.40;;;18.70;99.90;;;;;;5088854;28;19961;-76
2023/06/08 10:44:32;;;;;;;0.40;0.40;;;18.80;99.90;;;;;;5089563;28;20043;-76
2023/06/08 10:47:04;;;;;;;0.93;0.93;;;18.90;99.90;;;;;;5088797;28;20048;-77
2023/06/08 10:49:31;;;;;;;0.43;0.43;;;19.00;99.90;;;;;;5072106;28;20040;-76
2023/06/08 10:51:58;;;;;;;0.60;0.60;;;18.80;99.90;;;;;;5081033;28;20043;-76
2023/06/08 10:54:25;;;;;;;0.40;0.40;;;18.70;99.90;;;;;;5061443;28;20533;-76
2023/06/08 10:56:53;;;;;;;0.85;0.85;;;18.70;99.90;;;;;;5088338;28;20450;-77
2023/06/08 10:59:33;;;;;;;0.60;0.60;;;18.80;99.90;;;;;;5088688;28;20040;-76
2023/06/08 11:02:04;;;;;;;2.28;1.20;;;19.00;99.90;;;;;;5088357;28;20079;-76
2023/06/08 11:04:31;;;;;;;0.40;0.40;;;19.10;99.90;;;;;;5089103;28;20464;-76
2023/06/08 11:07:02;;;;;;;0.20;0.20;;;19.30;99.90;;;;;;5071368;28;20510;-76
2023/06/08 11:09:33;;;;;;;0.30;0.30;;;19.50;99.90;;;;;;5071645;28;20067;-76
2023/06/08 11:12:00;;;;;;;0.10;0.10;;;19.60;99.90;;;;;;5088472;28;20040;-76
2023/06/08 11:14:26;;;;;;;0.20;0.20;;;19.70;99.90;;;;;;5088933;28;20396;-76
2023/06/08 11:16:54;;;;;;;0.70;0.70;;;19.60;99.90;;;;;;5071388;28;20085;-76
2023/06/08 11:19:24;;;;;;;1.40;1.40;;;19.90;99.90;;;;;;5088307;28;20087;-77
2023/06/08 11:21:53;;;;;;;0.63;0.63;;;20.00;99.90;;;;;;5088107;28;20047;-76
2023/06/08 11:24:27;;;;;;;0.82;0.82;;;19.80;99.90;;;;;;5071602;28;20044;-76
2023/06/08 11:26:59;;;;;;;0.50;0.50;;;19.80;99.90;;;;;;5088338;28;20032;-76
2023/06/08 11:29:26;;;;;;;0.50;0.50;;;19.90;99.90;;;;;;5089127;28;20048;-76
2023/06/08 11:31:53;;;;;;;0.30;0.30;;;19.90;99.90;;;;;;5106357;28;20047;-76
2023/06/08 11:34:19;;;;;;;0.45;0.45;;;20.00;99.90;;;;;;5123687;28;20122;-77
2023/06/08 11:36:45;;;;;;;0.57;0.57;;;20.10;99.90;;;;;;5105152;28;20127;-76
2023/06/08 11:39:11;;;;;;;;;;;20.00;99.90;;;;;;5105821;28;20046;-76
2023/06/08 11:41:40;;;;;;;0.30;0.30;;;19.80;99.90;;;;;;5088876;28;20317;-76
2023/06/08 11:44:05;;;;;;;1.77;1.38;;;19.80;99.90;;;;;;5088641;28;20043;-76
2023/06/08 11:46:32;;;;;;;0.17;0.17;;;19.70;99.90;;;;;;5072073;28;20477;-77
2023/06/08 11:49:11;;;;;;;0.20;0.20;;;19.70;99.90;;;;;;5071997;28;20047;-76
2023/06/08 11:51:48;;;;;;;0.20;0.20;;;19.80;99.90;;;;;;5099768;28;20454;-76
2023/06/08 11:54:15;;;;;;;0.93;0.93;;;19.90;99.90;;;;;;5101999;28;20079;-77
2023/06/08 11:56:45;;;;;;;0.50;0.50;;;20.00;99.90;;;;;;5093220;28;20105;-75
2023/06/08 11:59:15;;;;;;;0.30;0.30;;;20.10;99.90;;;;;;5092454;28;20040;-76
2023/06/08 12:02:13;;;;;;;0.40;0.40;;;20.30;99.90;;;;;;5092624;28;20094;-76
2023/06/08 12:04:40;;;;;;;0.98;0.68;;;20.50;99.90;;;;;;5047829;28;20044;-77
2023/06/08 12:07:15;;;;;;;0.30;0.30;;;20.70;99.90;;;;;;5091845;28;20055;-76
2023/06/08 12:09:48;;;;;;;0.22;0.22;;;20.60;99.90;;;;;;5093042;28;20205;-76
2023/06/08 12:12:14;;;;;;;0.30;0.30;;;20.40;99.90;;;;;;5075998;28;20051;-77
2023/06/08 12:14:44;;;;;;;0.60;0.60;;;20.40;99.90;;;;;;5092057;28;20047;-76
2023/06/08 12:17:14;;;;;;;0.28;0.28;;;20.40;99.90;;;;;;5071813;28;20080;-76
2023/06/08 12:19:47;;;;;;;0.25;0.25;;;20.30;99.90;;;;;;5071496;28;20627;-76
2023/06/08 12:22:15;;;;;;;0.32;0.32;;;20.30;99.90;;;;;;5088003;28;20509;-76
2023/06/08 12:24:41;;;;;;;0.13;0.13;;;20.40;99.90;;;;;;5105849;28;20125;-76
2023/06/08 12:27:07;;;;;;;1.38;0.82;;;20.40;99.90;;;;;;5074354;28;20614;-77
2023/06/08 12:29:36;;;;;;;0.20;0.20;;;20.20;99.90;;;;;;5091262;28;20493;-76
2023/06/08 12:32:05;;;;;;;0.88;0.82;;;20.20;99.90;;;;;;5091493;28;20051;-75
2023/06/08 12:34:32;;;;;;;0.35;0.35;;;20.30;99.90;;;;;;5091410;28;20039;-75
2023/06/08 12:36:58;;;;;;;1.02;0.98;;;20.50;99.90;;;;;;5090995;28;20043;-75
2023/06/08 12:39:24;;;;;;;1.13;0.88;;;20.70;99.90;;;;;;5091934;28;20205;-75
2023/06/08 12:41:50;;;;;;;0.40;0.40;;;20.90;99.90;;;;;;5075346;28;20392;-75
2023/06/08 12:44:16;;;;;;;0.20;0.20;;;21.20;99.90;;;;;;5092573;28;20042;-75
2023/06/08 12:46:42;;;;;;;0.17;0.17;;;21.70;99.90;;;;;;5076196;28;20507;-76
2023/06/08 12:49:07;;;;;;;0.25;0.25;;;22.20;99.90;;;;;;5073912;28;20047;-76
2023/06/08 12:51:33;;;;;;;0.30;0.30;;;22.70;99.90;;;;;;5074489;28;20083;-76
2023/06/08 12:53:59;;;;;;;0.30;0.30;;;22.80;99.90;;;;;;5091296;28;20043;-76
2023/06/08 12:56:25;;;;;;;0.28;0.28;;;22.60;99.90;;;;;;5057628;28;20040;-76
2023/06/08 12:58:51;;;;;;;0.40;0.30;;;22.20;99.90;;;;;;5073973;28;20048;-75